LIRU Airport Information

Runway Information
Runway 16 Length 3543 ft width 98 ft
Elevation 55 ft Threshold 361 ft Heading 160
Runway 34 Length 3543 ft Width 98 ft
Elevation 55 ft Threshold 820 ft Heading 340
Airport Frequencies
Type GND Name GND Frequency 122.7 MHZ
Type TWR Name TWR Frequency 123.8 MHZ
Airport Navaids
Type NDB Name Urbe Frequency 285 KHZ
Airport Weather Information & NOTAM
ADDS - METARS form results

(1921 UTC 06 May 2021)
Data provider http://aviationweather.gov/metar/data/
 
Forecast for: LIRU (ROME/URBE (IT-AF, IT)
Text: TAF LIRU 061400Z 0615/0624 20010KT 9999 FEW025
Forecast period: 1500 to 1800 UTC 06 May 2021
Forecast type: FROM: standard forecast or significant change
Winds: from the SSW (200 degrees) at 12 MPH (10 knots; 5.1 m/s)
Visibility: 6 or more miles (10+ km)
Ceiling: at least 12,000 feet AGL
Clouds: few clouds at 2500 feet AGL
Weather: no significant weather forecast for this period
Text: BECMG 0618/0620 VRB05KT
Forecast period: 1800 UTC 06 May 2021 to 0000 UTC 07 May 2021
Forecast type: BECOMING: Conditions expected to become as follows by 2000 UTC 06 May 2021
Winds: variable direction winds at 6 MPH (5 knots; 2.6 m/s)
Visibility: 6 or more miles (10+ km)
Ceiling: at least 12,000 feet AGL
Clouds: few clouds at 2500 feet AGL
Weather: no significant weather forecast for this period